Time;durP1;ratioP1;P1;durP2;ratioP2;P2;SDS_P1;SDS_P2;PMS_P1;PMS_P2;Temp;Humidity;BMP_temperature;BMP_pressure;BME280_temperature;BME280_humidity;BME280_pressure;Samples;Min_cycle;Max_cycle;Signal;HPM_P1;HPM_P2
2021/01/30 00:00:06;;;;;;;10.75;8.55;;;1.60;99.90;;;;;;4144954;28;20036;-78
2021/01/30 00:02:08;;;;;;;8.55;7.72;;;1.50;99.90;;;;;;4146663;28;20128;-76
2021/01/30 00:04:12;;;;;;;12.15;8.60;;;1.60;99.90;;;;;;4146726;28;20109;-78
2021/01/30 00:06:13;;;;;;;11.95;9.30;;;1.60;99.90;;;;;;4144840;28;20121;-79
2021/01/30 00:08:15;;;;;;;10.98;9.63;;;1.70;99.90;;;;;;4145247;28;20026;-77
2021/01/30 00:10:17;;;;;;;9.73;8.73;;;1.70;99.90;;;;;;4144988;28;20128;-78
2021/01/30 00:12:18;;;;;;;8.93;7.18;;;1.60;99.90;;;;;;4144531;28;20358;-79
2021/01/30 00:14:26;;;;;;;10.20;8.88;;;1.60;99.90;;;;;;4145138;28;20044;-77
2021/01/30 00:16:27;;;;;;;9.50;8.52;;;1.70;99.90;;;;;;4144778;28;20196;-79
2021/01/30 00:18:28;;;;;;;10.63;9.00;;;1.70;99.90;;;;;;4145093;28;20030;-80
2021/01/30 00:20:31;;;;;;;11.25;9.60;;;1.80;99.90;;;;;;4146527;28;20034;-80
2021/01/30 00:22:32;;;;;;;11.93;9.45;;;1.70;99.90;;;;;;4133466;28;20034;-80
2021/01/30 00:24:33;;;;;;;14.60;10.23;;;1.70;99.90;;;;;;4145378;28;20057;-80
2021/01/30 00:26:34;;;;;;;11.70;9.77;;;1.70;99.90;;;;;;4144693;28;20455;-79
2021/01/30 00:28:34;;;;;;;11.73;9.82;;;1.80;99.90;;;;;;4146270;28;20113;-80
2021/01/30 00:30:36;;;;;;;12.85;11.23;;;1.70;99.90;;;;;;4146528;28;20405;-80
2021/01/30 00:32:36;;;;;;;11.80;10.45;;;1.60;99.90;;;;;;4146031;28;20048;-80
2021/01/30 00:34:38;;;;;;;12.85;10.88;;;1.60;99.90;;;;;;4146234;28;20030;-79
2021/01/30 00:36:39;;;;;;;14.35;11.60;;;1.60;99.90;;;;;;4144862;28;20038;-80
2021/01/30 00:38:40;;;;;;;11.45;10.23;;;1.50;99.90;;;;;;4144849;28;20113;-80
2021/01/30 00:40:40;;;;;;;15.57;12.20;;;1.50;99.90;;;;;;4145863;28;20033;-80
2021/01/30 00:42:42;;;;;;;15.10;11.57;;;1.40;99.90;;;;;;4146097;28;20033;-79
2021/01/30 00:44:43;;;;;;;12.55;10.90;;;1.50;99.90;;;;;;4144514;28;20034;-79
2021/01/30 00:46:48;;;;;;;15.25;12.25;;;1.40;99.90;;;;;;4160585;28;20400;-79
2021/01/30 00:48:49;;;;;;;15.65;12.65;;;1.40;99.90;;;;;;4146276;28;20477;-79
2021/01/30 00:50:50;;;;;;;14.75;12.57;;;1.40;99.90;;;;;;4144810;28;20029;-79
2021/01/30 00:52:51;;;;;;;13.50;12.13;;;1.40;99.90;;;;;;4144898;28;20032;-79
2021/01/30 00:54:52;;;;;;;16.92;13.38;;;1.30;99.90;;;;;;4144278;28;20523;-79
2021/01/30 00:56:55;;;;;;;14.77;13.00;;;1.30;99.90;;;;;;4143793;28;20432;-79
2021/01/30 00:58:56;;;;;;;15.38;12.75;;;1.30;99.90;;;;;;4144004;28;20037;-79
2021/01/30 01:00:56;;;;;;;16.42;13.45;;;1.30;99.90;;;;;;4136404;28;20033;-79
2021/01/30 01:02:57;;;;;;;15.32;12.05;;;1.30;99.90;;;;;;4137887;28;20029;-78
2021/01/30 01:04:58;;;;;;;16.58;12.13;;;1.30;99.90;;;;;;4144570;28;20405;-79
2021/01/30 01:06:58;;;;;;;13.95;11.38;;;1.30;99.90;;;;;;4145427;28;20022;-79
2021/01/30 01:09:07;;;;;;;16.27;14.05;;;1.20;99.90;;;;;;4145609;28;20105;-78
2021/01/30 01:11:08;;;;;;;13.38;11.00;;;1.20;99.90;;;;;;4143897;28;20022;-79
2021/01/30 01:13:09;;;;;;;13.82;12.00;;;1.10;99.90;;;;;;4144463;28;20025;-79
2021/01/30 01:15:10;;;;;;;15.32;12.38;;;1.10;99.90;;;;;;4144460;28;20045;-76
2021/01/30 01:17:11;;;;;;;16.45;13.07;;;1.10;99.90;;;;;;4144037;28;20076;-78
2021/01/30 01:19:12;;;;;;;14.82;12.27;;;1.10;99.90;;;;;;4145547;28;20454;-79
2021/01/30 01:21:15;;;;;;;18.88;12.93;;;1.00;99.90;;;;;;4144626;28;20394;-79
2021/01/30 01:23:16;;;;;;;13.95;12.20;;;1.00;99.90;;;;;;4146311;28;20401;-80
2021/01/30 01:25:19;;;;;;;15.27;12.68;;;1.00;99.90;;;;;;4144160;28;20092;-79
2021/01/30 01:27:20;;;;;;;15.23;12.80;;;1.00;99.90;;;;;;4143991;28;20030;-79
2021/01/30 01:29:22;;;;;;;15.38;12.05;;;1.00;99.90;;;;;;4145156;28;20365;-79
2021/01/30 01:31:23;;;;;;;16.67;13.65;;;1.00;99.90;;;;;;4144432;28;20026;-79
2021/01/30 01:33:24;;;;;;;18.58;14.00;;;1.00;99.90;;;;;;4144411;28;20022;-79
2021/01/30 01:35:29;;;;;;;16.73;13.10;;;1.00;99.90;;;;;;4145852;28;20018;-79
2021/01/30 01:37:30;;;;;;;15.18;13.23;;;1.00;99.90;;;;;;4145035;28;20373;-79
2021/01/30 01:39:32;;;;;;;17.25;14.15;;;1.00;99.90;;;;;;4145440;28;20122;-79
2021/01/30 01:41:33;;;;;;;16.60;14.15;;;0.90;99.90;;;;;;4144892;28;20660;-79
2021/01/30 01:43:34;;;;;;;18.33;15.18;;;0.90;99.90;;;;;;4143589;28;20026;-79
2021/01/30 01:45:35;;;;;;;19.48;15.35;;;0.90;99.90;;;;;;4143753;28;20048;-79
2021/01/30 01:47:47;;;;;;;17.25;13.27;;;0.90;99.90;;;;;;4143527;28;20124;-78
2021/01/30 01:49:49;;;;;;;17.45;13.68;;;0.90;99.90;;;;;;4143844;28;20018;-78
2021/01/30 01:52:02;;;;;;;18.40;13.23;;;0.90;99.90;;;;;;4143597;28;20469;-78
2021/01/30 01:54:06;;;;;;;16.55;13.80;;;0.90;99.90;;;;;;4143730;28;20026;-79
2021/01/30 01:56:19;;;;;;;22.17;17.00;;;0.90;99.90;;;;;;4143886;28;20030;-79
2021/01/30 01:58:22;;;;;;;18.60;14.88;;;0.90;99.90;;;;;;4143429;28;20065;-79
2021/01/30 02:00:24;;;;;;;18.38;16.05;;;0.90;99.90;;;;;;4145029;28;20038;-79
2021/01/30 02:02:30;;;;;;;19.48;15.75;;;0.80;99.90;;;;;;4145365;28;20037;-79
2021/01/30 02:04:32;;;;;;;18.90;16.35;;;0.80;99.90;;;;;;4148632;28;20022;-79
2021/01/30 02:06:35;;;;;;;18.10;14.40;;;0.80;99.90;;;;;;4150664;28;20040;-79
2021/01/30 02:08:36;;;;;;;;;;;0.80;99.90;;;;;;4137282;28;20050;-80
2021/01/30 02:10:43;;;;;;;18.73;15.73;;;0.80;99.90;;;;;;4150801;28;20391;-80
2021/01/30 02:12:45;;;;;;;18.58;13.65;;;0.80;99.90;;;;;;4150399;28;20252;-79
2021/01/30 02:14:48;;;;;;;20.55;16.02;;;0.80;99.90;;;;;;4149400;28;20045;-79
2021/01/30 02:16:56;;;;;;;18.98;16.08;;;0.80;99.90;;;;;;4149105;28;20033;-79
2021/01/30 02:19:12;;;;;;;20.05;16.45;;;0.80;99.90;;;;;;4148698;28;20101;-79
2021/01/30 02:21:34;;;;;;;19.10;15.25;;;0.80;99.90;;;;;;4149668;28;20361;-78
2021/01/30 02:24:06;;;;;;;16.38;14.38;;;0.80;99.90;;;;;;4148881;28;20030;-79
2021/01/30 02:26:41;;;;;;;17.75;14.55;;;0.80;99.90;;;;;;4138215;28;20092;-79
2021/01/30 02:29:10;;;;;;;21.13;15.23;;;0.80;99.90;;;;;;4148811;28;20038;-79
2021/01/30 02:31:34;;;;;;;16.27;14.50;;;0.80;99.90;;;;;;4137619;28;20393;-79
2021/01/30 02:33:55;;;;;;;16.90;15.10;;;0.70;99.90;;;;;;4150333;28;20029;-79
2021/01/30 02:36:20;;;;;;;19.08;14.93;;;0.80;99.90;;;;;;4150412;28;20056;-79
2021/01/30 02:38:24;;;;;;;19.10;14.55;;;0.70;99.90;;;;;;4137042;28;21555;-78
2021/01/30 02:40:28;;;;;;;19.05;14.68;;;0.70;99.90;;;;;;4149050;28;20036;-78
2021/01/30 02:42:42;;;;;;;19.15;14.70;;;0.70;99.90;;;;;;4149986;28;20110;-79
2021/01/30 02:44:57;;;;;;;16.20;14.43;;;0.70;99.90;;;;;;4149759;28;20034;-79
2021/01/30 02:46:58;;;;;;;15.50;13.02;;;0.70;99.90;;;;;;4150201;28;20052;-79
2021/01/30 02:49:03;;;;;;;14.98;12.32;;;0.70;99.90;;;;;;4148881;28;20038;-79
2021/01/30 02:51:10;;;;;;;16.20;13.05;;;0.70;99.90;;;;;;4150002;28;20061;-80
2021/01/30 02:53:13;;;;;;;19.25;13.23;;;0.70;99.90;;;;;;4143382;28;20040;-80
2021/01/30 02:55:15;;;;;;;;;;;0.70;99.90;;;;;;4150814;28;20025;-80
2021/01/30 02:57:17;;;;;;;15.85;12.07;;;0.70;99.90;;;;;;4148592;28;19917;-79
2021/01/30 02:59:21;;;;;;;14.23;11.95;;;0.80;99.90;;;;;;4148393;28;20026;-79
2021/01/30 03:01:21;;;;;;;;;;;0.80;99.90;;;;;;4147623;28;20054;-79
2021/01/30 03:03:22;;;;;;;16.63;12.95;;;0.80;99.90;;;;;;4144344;28;19909;-79
2021/01/30 03:05:23;;;;;;;14.30;11.57;;;0.80;99.90;;;;;;4148430;28;20026;-79
2021/01/30 03:07:29;;;;;;;12.95;11.63;;;0.80;99.90;;;;;;4149867;28;20050;-79
2021/01/30 03:09:38;;;;;;;14.52;11.30;;;0.80;99.90;;;;;;4150230;28;20441;-79
2021/01/30 03:12:03;;;;;;;12.23;10.93;;;0.80;99.90;;;;;;4148596;28;20022;-80
2021/01/30 03:14:13;;;;;;;11.43;10.10;;;0.80;99.90;;;;;;4149474;28;20033;-79
2021/01/30 03:16:19;;;;;;;14.77;12.07;;;0.70;99.90;;;;;;4145410;28;20041;-79
2021/01/30 03:18:25;;;;;;;11.77;9.75;;;0.80;99.90;;;;;;4145769;28;20124;-79
2021/01/30 03:20:29;;;;;;;11.38;9.70;;;0.70;99.90;;;;;;4145713;28;20678;-78
2021/01/30 03:22:37;;;;;;;11.82;10.55;;;0.70;99.90;;;;;;4147243;28;20509;-79
2021/01/30 03:24:44;;;;;;;13.70;11.10;;;0.70;99.90;;;;;;4146148;28;20045;-78
2021/01/30 03:26:46;;;;;;;12.98;11.38;;;0.70;99.90;;;;;;4147165;28;20040;-78
2021/01/30 03:28:48;;;;;;;11.55;9.20;;;0.70;99.90;;;;;;4146910;28;20030;-77
2021/01/30 03:30:48;;;;;;;12.75;10.40;;;0.70;99.90;;;;;;4145599;28;20030;-78
2021/01/30 03:32:50;;;;;;;13.48;10.45;;;0.70;99.90;;;;;;4146997;28;20030;-78
2021/01/30 03:34:52;;;;;;;10.73;9.55;;;0.70;99.90;;;;;;4145766;28;20030;-79
2021/01/30 03:36:53;;;;;;;11.33;9.23;;;0.70;99.90;;;;;;4145545;28;20045;-79
2021/01/30 03:38:54;;;;;;;10.23;9.05;;;0.70;99.90;;;;;;4145574;28;20249;-78
2021/01/30 03:40:54;;;;;;;9.93;8.52;;;0.70;99.90;;;;;;4147111;28;20393;-78
2021/01/30 03:42:55;;;;;;;11.43;8.63;;;0.70;99.90;;;;;;4147041;28;20044;-78
2021/01/30 03:44:56;;;;;;;10.48;8.60;;;0.70;99.90;;;;;;4146459;28;20452;-78
2021/01/30 03:46:56;;;;;;;11.05;9.20;;;0.70;99.90;;;;;;4146729;28;20374;-79
2021/01/30 03:48:57;;;;;;;10.00;8.95;;;0.70;99.90;;;;;;4145747;28;20040;-79
2021/01/30 03:50:57;;;;;;;10.00;8.93;;;0.70;99.90;;;;;;4146673;28;20037;-79
2021/01/30 03:52:58;;;;;;;11.30;8.57;;;0.70;99.90;;;;;;4145254;28;20022;-79
2021/01/30 03:54:59;;;;;;;10.80;8.93;;;0.70;99.90;;;;;;4146622;28;20086;-79
2021/01/30 03:57:00;;;;;;;10.48;8.93;;;0.70;99.90;;;;;;4147150;28;20033;-79
2021/01/30 03:59:00;;;;;;;10.38;9.30;;;0.70;99.90;;;;;;4146147;28;20026;-78
2021/01/30 04:01:01;;;;;;;10.25;8.55;;;0.70;99.90;;;;;;4144776;28;20025;-79
2021/01/30 04:03:02;;;;;;;10.23;8.98;;;0.70;99.90;;;;;;4144277;28;20037;-80
2021/01/30 04:05:04;;;;;;;11.30;9.48;;;0.70;99.90;;;;;;4146537;28;20057;-79
2021/01/30 04:07:04;;;;;;;12.32;8.55;;;0.70;99.90;;;;;;4146266;28;20022;-80
2021/01/30 04:09:06;;;;;;;9.35;8.35;;;0.70;99.90;;;;;;4145414;28;20173;-79
2021/01/30 04:11:07;;;;;;;10.23;7.90;;;0.70;99.90;;;;;;4145635;28;20032;-79
2021/01/30 04:13:10;;;;;;;9.88;8.82;;;0.60;99.90;;;;;;4146548;28;20128;-79
2021/01/30 04:15:16;;;;;;;10.45;9.35;;;0.60;99.90;;;;;;4145400;28;20029;-79
2021/01/30 04:17:17;;;;;;;10.13;9.13;;;0.50;99.90;;;;;;4146207;28;20032;-79
2021/01/30 04:19:17;;;;;;;10.18;9.05;;;0.50;99.90;;;;;;4146481;28;20386;-79
2021/01/30 04:21:18;;;;;;;11.25;9.85;;;0.40;99.90;;;;;;4144001;28;20496;-80
2021/01/30 04:23:18;;;;;;;9.48;8.48;;;0.40;99.90;;;;;;4145990;28;20032;-78
2021/01/30 04:25:21;;;;;;;9.95;8.18;;;0.40;99.90;;;;;;4139335;28;20085;-79
2021/01/30 04:27:22;;;;;;;9.88;8.85;;;0.50;99.90;;;;;;4143298;28;20037;-79
2021/01/30 04:29:22;;;;;;;9.43;8.23;;;0.40;99.90;;;;;;4135261;28;20034;-79
2021/01/30 04:31:23;;;;;;;10.98;8.77;;;0.40;99.90;;;;;;4131851;28;20045;-79
2021/01/30 04:33:24;;;;;;;9.57;8.40;;;0.30;99.90;;;;;;4136484;28;20109;-79
2021/01/30 04:35:29;;;;;;;10.80;7.90;;;0.20;99.90;;;;;;4141715;28;20030;-79
2021/01/30 04:37:30;;;;;;;8.77;7.95;;;0.10;99.90;;;;;;4144652;28;20064;-79
2021/01/30 04:39:31;;;;;;;11.13;9.10;;;0.10;99.90;;;;;;4160544;28;20179;-79
2021/01/30 04:41:55;;;;;;;13.52;9.43;;;0.10;99.90;;;;;;4138492;28;20397;-80
2021/01/30 04:44:04;;;;;;;11.68;9.77;;;0.00;99.90;;;;;;4146149;28;20030;-80
2021/01/30 04:46:23;;;;;;;12.63;7.95;;;0.00;99.90;;;;;;4143558;28;20121;-80
2021/01/30 04:48:41;;;;;;;10.05;9.05;;;0.00;99.90;;;;;;4144934;28;20088;-77
2021/01/30 04:51:06;;;;;;;11.75;9.57;;;0.00;99.90;;;;;;4142398;28;20041;-79
2021/01/30 04:53:31;;;;;;;10.00;8.55;;;-0.10;99.90;;;;;;4143911;28;20026;-78
2021/01/30 04:56:01;;;;;;;10.23;8.20;;;-0.20;99.90;;;;;;4157047;28;20475;-79
2021/01/30 04:58:11;;;;;;;11.55;9.05;;;-0.20;99.90;;;;;;4140051;28;20029;-80
2021/01/30 05:00:43;;;;;;;11.35;8.85;;;-0.30;99.90;;;;;;4141627;28;20473;-79
2021/01/30 05:02:51;;;;;;;11.63;9.70;;;-0.30;99.90;;;;;;4140131;28;20776;-79
2021/01/30 05:04:55;;;;;;;10.68;8.40;;;-0.40;99.90;;;;;;4145999;28;20026;-80
2021/01/30 05:07:09;;;;;;;9.77;7.82;;;-0.40;99.90;;;;;;4145474;28;20545;-80
2021/01/30 05:09:23;;;;;;;10.38;9.25;;;-0.50;99.90;;;;;;4144083;28;20073;-80
2021/01/30 05:11:26;;;;;;;;;;;-0.50;99.90;;;;;;4153490;28;20128;-79
2021/01/30 05:13:34;;;;;;;10.55;8.65;;;-0.60;99.90;;;;;;4160477;28;20372;-80
2021/01/30 05:16:04;;;;;;;12.98;10.05;;;-0.60;99.90;;;;;;4143268;28;20113;-80
2021/01/30 05:18:14;;;;;;;10.90;8.93;;;-0.60;99.90;;;;;;4149914;28;20021;-79
2021/01/30 05:20:16;;;;;;;11.68;9.32;;;-0.70;99.90;;;;;;4142994;28;20069;-79
2021/01/30 05:22:18;;;;;;;11.70;8.90;;;-0.70;99.90;;;;;;4143498;28;20040;-79
2021/01/30 05:24:24;;;;;;;12.23;9.60;;;-0.80;99.90;;;;;;4145712;28;20524;-79
2021/01/30 05:26:50;;;;;;;11.20;9.80;;;-0.80;99.90;;;;;;4143842;28;20026;-79
2021/01/30 05:29:26;;;;;;;11.98;8.63;;;-0.80;99.90;;;;;;4144172;28;20492;-80
2021/01/30 05:31:37;;;;;;;11.13;8.75;;;-0.70;99.90;;;;;;4139676;28;20030;-80
2021/01/30 05:33:46;;;;;;;11.30;8.35;;;-0.80;99.90;;;;;;4144611;28;20797;-80
2021/01/30 05:36:06;;;;;;;11.65;9.20;;;-0.90;99.90;;;;;;4143655;28;20034;-79
2021/01/30 05:38:37;;;;;;;12.05;8.77;;;-1.00;99.90;;;;;;4141049;28;20128;-79
2021/01/30 05:40:44;;;;;;;12.43;9.15;;;-1.00;99.90;;;;;;4144795;28;20038;-79
2021/01/30 05:43:09;;;;;;;12.13;8.60;;;-1.00;99.90;;;;;;4142373;28;20029;-79
2021/01/30 05:45:45;;;;;;;11.70;9.30;;;-1.00;99.90;;;;;;4143434;28;20045;-79
2021/01/30 05:47:50;;;;;;;13.38;9.63;;;-1.00;99.90;;;;;;4144369;28;20099;-79
2021/01/30 05:50:02;;;;;;;10.95;8.52;;;-0.90;99.90;;;;;;4143456;28;20100;-79
2021/01/30 05:52:17;;;;;;;10.32;8.27;;;-0.80;99.90;;;;;;4143792;28;20532;-79
2021/01/30 05:54:17;;;;;;;11.65;8.82;;;-0.70;99.90;;;;;;4145016;28;20030;-79
2021/01/30 05:56:19;;;;;;;13.05;9.73;;;-0.60;99.90;;;;;;4145532;28;20029;-79
2021/01/30 05:58:22;;;;;;;11.50;8.75;;;-0.50;99.90;;;;;;4143575;28;20033;-79
2021/01/30 06:00:25;;;;;;;12.48;9.07;;;-0.40;99.90;;;;;;4144348;28;20054;-77
2021/01/30 06:02:30;;;;;;;8.98;7.28;;;-0.30;99.90;;;;;;4144029;28;20041;-77
2021/01/30 06:04:31;;;;;;;9.57;8.05;;;-0.20;99.90;;;;;;4144019;28;20053;-77
2021/01/30 06:06:38;;;;;;;10.05;7.25;;;-0.10;99.90;;;;;;4143395;28;20063;-79
2021/01/30 06:08:38;;;;;;;9.52;8.15;;;-0.10;99.90;;;;;;4142634;28;20377;-78
2021/01/30 06:10:41;;;;;;;10.75;7.55;;;0.00;99.90;;;;;;4145054;28;20030;-77
2021/01/30 06:12:42;;;;;;;12.27;8.20;;;0.00;99.90;;;;;;4143660;28;20555;-78
2021/01/30 06:14:43;;;;;;;9.55;7.28;;;0.10;99.90;;;;;;4143657;28;20022;-78
2021/01/30 06:16:48;;;;;;;8.55;6.97;;;0.10;99.90;;;;;;4143894;28;20315;-78
2021/01/30 06:18:49;;;;;;;9.73;7.53;;;0.10;99.90;;;;;;4144683;28;20481;-78
2021/01/30 06:21:00;;;;;;;9.55;8.00;;;0.10;99.90;;;;;;4144147;28;20064;-78
2021/01/30 06:23:09;;;;;;;11.13;8.07;;;0.20;99.90;;;;;;4141858;28;20026;-77
2021/01/30 06:25:31;;;;;;;10.38;7.55;;;0.20;99.90;;;;;;4141895;28;20025;-78
2021/01/30 06:27:41;;;;;;;9.20;7.20;;;0.20;99.90;;;;;;4143001;28;20432;-79
2021/01/30 06:29:55;;;;;;;13.60;7.32;;;0.20;99.90;;;;;;4142734;28;20022;-79
2021/01/30 06:32:06;;;;;;;10.15;7.22;;;0.20;99.90;;;;;;4143346;28;20040;-79
2021/01/30 06:34:37;;;;;;;9.93;6.93;;;0.30;99.90;;;;;;4143433;28;20065;-78
2021/01/30 06:36:47;;;;;;;9.43;7.30;;;0.30;99.90;;;;;;4136405;28;20420;-78
2021/01/30 06:38:50;;;;;;;12.05;7.15;;;0.30;99.90;;;;;;4143135;28;20026;-78
2021/01/30 06:40:57;;;;;;;9.95;8.43;;;0.30;99.90;;;;;;4143374;28;20105;-78
2021/01/30 06:43:22;;;;;;;9.15;7.15;;;0.30;99.90;;;;;;4143411;28;20034;-79
2021/01/30 06:45:28;;;;;;;8.90;6.97;;;0.40;99.90;;;;;;4142757;28;20045;-78
2021/01/30 06:47:29;;;;;;;9.07;6.88;;;0.40;99.90;;;;;;4142782;28;20121;-79
2021/01/30 06:49:40;;;;;;;9.98;7.45;;;0.40;99.90;;;;;;4142556;28;20052;-79
2021/01/30 06:51:42;;;;;;;12.48;7.47;;;0.40;99.90;;;;;;4145871;28;20080;-79
2021/01/30 06:53:43;;;;;;;8.43;7.38;;;0.40;99.90;;;;;;4145480;28;20052;-79
2021/01/30 06:55:44;;;;;;;8.45;6.28;;;0.40;99.90;;;;;;4147665;28;20328;-79
2021/01/30 06:58:00;;;;;;;8.68;6.53;;;0.40;99.90;;;;;;4147622;28;20026;-79
2021/01/30 07:00:11;;;;;;;8.15;6.10;;;0.40;99.90;;;;;;4145833;28;20026;-79
2021/01/30 07:02:18;;;;;;;8.75;7.30;;;0.40;99.90;;;;;;4147057;28;20077;-79
2021/01/30 07:04:27;;;;;;;8.02;6.55;;;0.40;99.90;;;;;;4144970;28;20038;-79
2021/01/30 07:06:53;;;;;;;8.70;6.78;;;0.40;99.90;;;;;;4147717;28;20030;-79
2021/01/30 07:09:07;;;;;;;10.07;7.47;;;0.40;99.90;;;;;;4132534;28;20039;-78
2021/01/30 07:11:28;;;;;;;8.82;7.47;;;0.40;99.90;;;;;;4147005;28;20538;-79
2021/01/30 07:13:29;;;;;;;9.95;8.50;;;0.30;99.90;;;;;;4147468;28;20022;-79
2021/01/30 07:15:34;;;;;;;9.45;7.82;;;0.30;99.90;;;;;;4146271;28;20045;-79
2021/01/30 07:18:07;;;;;;;9.63;8.45;;;0.30;99.90;;;;;;4147684;28;20074;-79
2021/01/30 07:20:24;;;;;;;10.80;8.80;;;0.30;99.90;;;;;;4134629;28;20084;-80
2021/01/30 07:22:38;;;;;;;10.38;7.90;;;0.30;99.90;;;;;;4147145;28;20045;-79
2021/01/30 07:25:15;;;;;;;13.18;9.27;;;0.30;99.90;;;;;;4147201;28;20465;-80
2021/01/30 07:27:35;;;;;;;10.85;7.82;;;0.30;99.90;;;;;;4145309;28;20060;-80
2021/01/30 07:29:48;;;;;;;10.38;8.75;;;0.30;99.90;;;;;;4147355;28;20317;-79
2021/01/30 07:32:00;;;;;;;10.38;9.27;;;0.30;99.90;;;;;;4147322;28;20052;-79
2021/01/30 07:34:25;;;;;;;12.43;9.02;;;0.30;99.90;;;;;;4143726;28;20026;-78
2021/01/30 07:36:40;;;;;;;11.48;9.63;;;0.30;99.90;;;;;;4124793;28;20496;-77
2021/01/30 07:38:52;;;;;;;10.48;8.25;;;0.30;99.90;;;;;;4145522;28;20033;-79
2021/01/30 07:41:14;;;;;;;11.70;9.55;;;0.20;99.90;;;;;;4145942;28;20130;-78
2021/01/30 07:43:21;;;;;;;11.10;9.00;;;0.20;99.90;;;;;;4146128;28;20038;-80
2021/01/30 07:45:27;;;;;;;10.95;8.82;;;0.30;99.90;;;;;;4147104;28;20543;-77
2021/01/30 07:47:54;;;;;;;12.80;8.93;;;0.20;99.90;;;;;;4145365;28;20046;-79
2021/01/30 07:49:59;;;;;;;10.95;9.38;;;0.30;99.90;;;;;;4145392;28;20072;-77
2021/01/30 07:52:13;;;;;;;10.88;8.18;;;0.30;99.90;;;;;;4145051;28;20018;-77
2021/01/30 07:54:13;;;;;;;9.73;8.15;;;0.30;99.90;;;;;;4144625;28;20038;-78
2021/01/30 07:56:17;;;;;;;11.63;9.30;;;0.30;99.90;;;;;;4143775;28;20496;-78
2021/01/30 07:58:36;;;;;;;;;;;0.30;99.90;;;;;;4146952;28;20116;-78
2021/01/30 08:01:03;;;;;;;12.50;7.78;;;0.30;99.90;;;;;;4143621;28;19928;-78
2021/01/30 08:03:17;;;;;;;11.80;7.97;;;0.40;99.90;;;;;;4144803;28;20036;-78
2021/01/30 08:05:33;;;;;;;11.27;8.48;;;0.40;99.90;;;;;;4142380;28;20444;-79
2021/01/30 08:07:55;;;;;;;11.00;8.50;;;0.40;99.90;;;;;;4146274;28;20425;-79
2021/01/30 08:10:06;;;;;;;10.48;8.05;;;0.40;99.90;;;;;;4146387;28;20056;-79
2021/01/30 08:12:15;;;;;;;11.55;8.13;;;0.50;99.90;;;;;;4144107;28;20116;-77
2021/01/30 08:14:39;;;;;;;11.65;9.05;;;0.50;99.90;;;;;;4143432;28;20029;-79
2021/01/30 08:16:59;;;;;;;;;;;0.50;99.90;;;;;;4146513;28;20026;-79
2021/01/30 08:19:06;;;;;;;10.80;8.05;;;0.50;99.90;;;;;;4142673;28;19909;-79
2021/01/30 08:21:36;;;;;;;14.60;9.80;;;0.60;99.90;;;;;;4145890;28;20034;-79
2021/01/30 08:23:49;;;;;;;12.38;8.93;;;0.60;99.90;;;;;;4143774;28;20033;-78
2021/01/30 08:26:02;;;;;;;14.52;10.32;;;0.60;99.90;;;;;;4149618;28;20478;-77
2021/01/30 08:28:23;;;;;;;14.25;10.90;;;0.60;99.90;;;;;;4145893;28;20034;-77
2021/01/30 08:30:24;;;;;;;13.10;8.60;;;0.60;99.90;;;;;;4145869;28;20045;-78
2021/01/30 08:32:25;;;;;;;13.30;9.43;;;0.60;99.90;;;;;;4145615;28;20026;-78
2021/01/30 08:34:30;;;;;;;10.48;8.32;;;0.70;99.90;;;;;;4144637;28;20042;-79
2021/01/30 08:36:42;;;;;;;12.60;9.07;;;0.60;99.90;;;;;;4144290;28;20033;-79
2021/01/30 08:39:03;;;;;;;10.65;8.80;;;0.60;99.90;;;;;;4145846;28;20137;-79
2021/01/30 08:41:31;;;;;;;12.18;8.80;;;0.70;99.90;;;;;;4141050;28;20033;-77
2021/01/30 08:43:53;;;;;;;9.27;7.18;;;0.60;99.90;;;;;;4138838;28;20037;-77
2021/01/30 08:46:34;;;;;;;11.23;8.32;;;0.60;99.90;;;;;;4128008;28;20065;-78
2021/01/30 08:48:34;;;;;;;10.10;7.55;;;0.70;99.90;;;;;;4132473;28;20034;-78
2021/01/30 08:50:47;;;;;;;10.68;7.90;;;0.70;99.90;;;;;;4145720;28;20022;-78
2021/01/30 08:52:56;;;;;;;9.73;7.88;;;0.70;99.90;;;;;;4144718;28;20025;-78
2021/01/30 08:54:59;;;;;;;10.57;8.18;;;0.70;99.90;;;;;;4144440;28;20037;-79
2021/01/30 08:57:03;;;;;;;11.32;7.15;;;0.60;99.90;;;;;;4145146;28;20493;-79
2021/01/30 08:59:04;;;;;;;9.43;7.68;;;0.70;99.90;;;;;;4143785;28;20030;-79
2021/01/30 09:01:22;;;;;;;11.23;8.40;;;0.80;99.90;;;;;;4144245;28;20121;-79
2021/01/30 09:03:51;;;;;;;10.45;8.40;;;0.80;99.90;;;;;;4144394;28;20093;-79
2021/01/30 09:05:51;;;;;;;10.95;8.65;;;0.80;99.90;;;;;;4143765;28;20496;-79
2021/01/30 09:07:57;;;;;;;10.13;8.02;;;0.80;99.90;;;;;;4145545;28;20045;-78
2021/01/30 09:10:17;;;;;;;12.45;9.32;;;0.80;99.90;;;;;;4142417;28;20026;-78
2021/01/30 09:12:56;;;;;;;9.73;8.20;;;0.80;99.90;;;;;;4140010;28;20030;-79
2021/01/30 09:14:56;;;;;;;10.50;8.27;;;0.70;99.90;;;;;;4135916;28;20038;-78
2021/01/30 09:16:57;;;;;;;9.80;8.10;;;0.80;99.90;;;;;;4132396;28;20109;-78
2021/01/30 09:19:00;;;;;;;10.93;8.90;;;0.80;99.90;;;;;;4129567;28;20504;-79
2021/01/30 09:21:11;;;;;;;;;;;0.80;99.90;;;;;;4131134;28;20497;-79
2021/01/30 09:23:41;;;;;;;13.55;9.15;;;0.80;99.90;;;;;;4128611;28;20041;-78
2021/01/30 09:26:02;;;;;;;10.68;8.23;;;0.80;99.90;;;;;;4143565;28;20089;-77
2021/01/30 09:28:24;;;;;;;11.98;8.20;;;0.90;99.90;;;;;;4142661;28;20113;-77
2021/01/30 09:30:39;;;;;;;12.15;7.85;;;0.90;99.90;;;;;;4145112;28;20117;-77
2021/01/30 09:32:47;;;;;;;10.27;7.88;;;0.90;99.90;;;;;;4143358;28;20088;-78
2021/01/30 09:34:50;;;;;;;9.50;7.72;;;0.90;99.90;;;;;;4144361;28;20036;-78
2021/01/30 09:36:53;;;;;;;12.45;9.25;;;0.90;99.90;;;;;;4143334;28;20029;-79
2021/01/30 09:38:59;;;;;;;10.13;8.40;;;0.90;99.90;;;;;;4144896;28;20127;-79
2021/01/30 09:41:14;;;;;;;10.95;8.30;;;1.00;99.90;;;;;;4145378;28;20393;-78
2021/01/30 09:43:21;;;;;;;11.43;8.52;;;1.10;99.90;;;;;;4144514;28;20109;-77
2021/01/30 09:45:22;;;;;;;12.15;8.20;;;1.20;99.90;;;;;;4142344;28;20417;-78
2021/01/30 09:47:23;;;;;;;11.88;9.98;;;1.30;99.90;;;;;;4145010;28;20100;-78
2021/01/30 09:49:31;;;;;;;10.50;8.20;;;1.40;99.90;;;;;;4140757;28;20034;-77
2021/01/30 09:51:32;;;;;;;10.23;8.35;;;1.50;99.90;;;;;;4134496;28;20029;-79
2021/01/30 09:53:40;;;;;;;11.20;8.80;;;1.50;99.90;;;;;;4136236;28;20057;-77
2021/01/30 09:55:41;;;;;;;12.07;9.35;;;1.40;99.90;;;;;;4133259;28;20093;-79
2021/01/30 09:57:43;;;;;;;11.35;8.68;;;1.30;99.90;;;;;;4135458;28;20031;-78
2021/01/30 09:59:44;;;;;;;10.10;8.02;;;1.30;99.90;;;;;;4130032;28;20045;-79
2021/01/30 10:01:46;;;;;;;9.68;7.85;;;1.30;99.90;;;;;;4135299;28;20023;-79
2021/01/30 10:03:46;;;;;;;13.90;8.82;;;1.30;99.90;;;;;;4133812;28;20081;-77
2021/01/30 10:05:49;;;;;;;10.90;8.95;;;1.40;99.90;;;;;;4134021;28;20481;-76
2021/01/30 10:07:49;;;;;;;13.10;9.80;;;1.50;99.90;;;;;;4133954;28;20423;-79
2021/01/30 10:09:50;;;;;;;9.43;7.75;;;1.50;99.90;;;;;;4141849;28;20033;-79
2021/01/30 10:11:57;;;;;;;11.75;8.68;;;1.70;99.90;;;;;;4144389;28;20367;-77
2021/01/30 10:13:59;;;;;;;9.18;7.82;;;1.80;99.90;;;;;;4143027;28;20405;-77
2021/01/30 10:16:03;;;;;;;11.85;8.80;;;2.00;99.90;;;;;;4143339;28;20512;-76
2021/01/30 10:18:08;;;;;;;9.07;6.97;;;2.10;99.90;;;;;;4144075;28;20022;-77
2021/01/30 10:20:15;;;;;;;9.38;7.32;;;2.10;99.90;;;;;;4143116;28;20026;-77
2021/01/30 10:22:22;;;;;;;10.20;7.28;;;2.10;99.90;;;;;;4144914;28;20030;-77
2021/01/30 10:24:29;;;;;;;10.13;7.43;;;2.20;99.90;;;;;;4146259;28;20026;-79
2021/01/30 10:26:29;;;;;;;8.80;7.32;;;2.30;99.90;;;;;;4147819;28;20072;-78
2021/01/30 10:28:48;;;;;;;11.50;8.20;;;2.20;99.90;;;;;;4147720;28;20026;-78
2021/01/30 10:30:48;;;;;;;8.88;7.13;;;2.30;99.90;;;;;;4147327;28;20034;-78
2021/01/30 10:32:52;;;;;;;8.32;6.80;;;2.30;99.90;;;;;;4136034;28;20457;-78
2021/01/30 10:35:00;;;;;;;9.80;7.88;;;2.30;99.90;;;;;;4134171;28;20061;-77
2021/01/30 10:37:04;;;;;;;7.90;7.10;;;2.40;99.90;;;;;;4135644;28;20030;-79
2021/01/30 10:39:06;;;;;;;9.30;7.78;;;2.30;99.90;;;;;;4135290;28;20117;-78
2021/01/30 10:41:07;;;;;;;9.82;8.18;;;2.10;99.90;;;;;;4132879;28;20386;-78
2021/01/30 10:43:27;;;;;;;9.38;7.15;;;2.00;99.90;;;;;;4134028;28;20046;-77
2021/01/30 10:45:31;;;;;;;8.52;7.13;;;2.00;99.90;;;;;;4147885;28;20041;-77
2021/01/30 10:47:32;;;;;;;12.23;8.18;;;2.00;99.90;;;;;;4146870;28;20449;-77
2021/01/30 10:49:36;;;;;;;8.70;7.43;;;2.10;99.90;;;;;;4147047;28;20036;-76
2021/01/30 10:51:37;;;;;;;11.18;7.30;;;2.10;99.90;;;;;;4147953;28;20410;-77
2021/01/30 10:53:41;;;;;;;9.25;7.78;;;2.20;99.90;;;;;;4147204;28;20034;-78
2021/01/30 10:55:42;;;;;;;10.55;8.18;;;2.40;99.90;;;;;;4147032;28;20026;-78
2021/01/30 10:57:42;;;;;;;8.63;7.72;;;2.30;99.90;;;;;;4146654;28;20038;-77
2021/01/30 10:59:52;;;;;;;8.65;7.55;;;2.20;99.90;;;;;;4147688;28;20030;-78
2021/01/30 11:01:52;;;;;;;11.77;8.63;;;2.10;99.90;;;;;;4146314;28;20030;-78
2021/01/30 11:03:59;;;;;;;10.43;8.95;;;2.20;99.90;;;;;;4146438;28;20024;-78
2021/01/30 11:06:14;;;;;;;8.27;7.28;;;2.10;99.90;;;;;;4143306;28;20037;-78